Time,TemperatureF,DewpointF,PressureIn,WindDirection,WindDirectionDegrees,WindSpeedMPH,WindSpeedGustMPH,Humidity,HourlyPrecipIn,Conditions,Clouds,dailyrainin,SoftwareType,DateUTC
2013-03-03 00:03:00,28.4,20.5,30.10,SE,135,1.2,0.0,72,0.00,CLR,SKC,0.00,WeatherDisplay:10.37,2013-03-02 23:03:00,
2013-03-03 00:08:00,28.6,20.7,30.10,North,0,1.6,1.6,72,0.00,CLR,SKC,0.00,WeatherDisplay:10.37,2013-03-02 23:08:00,
2013-03-03 00:13:00,28.4,20.5,30.10,East,90,2.2,2.2,72,0.00,CLR,SKC,0.00,WeatherDisplay:10.37,2013-03-02 23:13:00,
2013-03-03 00:18:00,28.4,20.5,30.10,NE,45,2.3,2.3,72,0.00,CLR,SKC,0.00,WeatherDisplay:10.37,2013-03-02 23:18:00,
2013-03-03 00:23:00,28.2,19.0,30.10,SE,135,2.3,2.3,68,0.00,CLR,SKC,0.00,WeatherDisplay:10.37,2013-03-02 23:23:00,
2013-03-03 00:28:00,28.0,18.8,30.10,SE,135,3.5,3.5,68,0.00,CLR,SKC,0.00,WeatherDisplay:10.37,2013-03-02 23:28:00,
2013-03-03 00:33:00,28.0,18.8,30.11,NE,45,2.3,0.0,68,0.00,CLR,SKC,0.00,WeatherDisplay:10.37,2013-03-02 23:33:00,
2013-03-03 00:38:00,27.9,18.7,30.11,SE,135,2.3,2.3,68,0.00,CLR,SKC,0.00,WeatherDisplay:10.37,2013-03-02 23:38:00,
2013-03-03 00:43:00,27.9,19.0,30.11,SE,135,2.3,2.3,69,0.00,CLR,SKC,0.00,WeatherDisplay:10.37,2013-03-02 23:43:00,
2013-03-03 00:48:00,27.7,18.8,30.10,SE,135,2.3,0.0,69,0.00,CLR,SKC,0.00,WeatherDisplay:10.37,2013-03-02 23:48:00,
2013-03-03 00:53:00,27.7,18.8,30.11,SE,135,2.3,2.3,69,0.00,CLR,SKC,0.00,WeatherDisplay:10.37,2013-03-02 23:53:00,
2013-03-03 00:58:00,27.7,18.8,30.11,SE,135,2.3,0.0,69,0.00,CLR,SKC,0.00,WeatherDisplay:10.37,2013-03-02 23:58:00,
2013-03-03 01:03:00,27.5,18.7,30.10,East,90,2.3,0.0,69,0.00,CLR,SKC,0.00,WeatherDisplay:10.37,2013-03-03 00:03:00,
2013-03-03 01:08:00,27.5,18.7,30.10,SE,135,1.2,0.0,69,0.00,CLR,SKC,0.00,WeatherDisplay:10.37,2013-03-03 00:08:00,
2013-03-03 01:13:00,27.5,18.7,30.11,NE,45,1.2,0.0,69,0.00,CLR,SKC,0.00,WeatherDisplay:10.37,2013-03-03 00:13:00,
2013-03-03 01:18:00,27.3,18.5,30.11,NE,45,0.0,0.0,69,0.00,CLR,SKC,0.00,WeatherDisplay:10.37,2013-03-03 00:18:00,
2013-03-03 01:23:00,27.3,18.5,30.10,SE,135,1.6,1.6,69,0.00,CLR,SKC,0.00,WeatherDisplay:10.37,2013-03-03 00:23:00,
2013-03-03 01:28:00,27.3,18.5,30.10,North,0,1.2,0.0,69,0.00,CLR,SKC,0.00,WeatherDisplay:10.37,2013-03-03 00:28:00,
2013-03-03 01:33:00,27.3,18.8,30.09,SE,135,1.6,1.6,70,0.00,CLR,SKC,0.00,WeatherDisplay:10.37,2013-03-03 00:33:00,
2013-03-03 01:38:00,27.3,18.8,30.10,South,180,3.5,0.0,70,0.00,CLR,SKC,0.00,WeatherDisplay:10.37,2013-03-03 00:38:00,
2013-03-03 01:43:00,27.1,18.6,30.10,South,180,1.6,1.6,70,0.00,CLR,SKC,0.00,WeatherDisplay:10.37,2013-03-03 00:43:00,
2013-03-03 01:48:00,27.1,18.6,30.10,South,180,2.3,0.0,70,0.00,CLR,SKC,0.00,WeatherDisplay:10.37,2013-03-03 00:48:00,
2013-03-03 01:53:00,27.1,18.6,30.10,NE,45,1.2,0.0,70,0.00,CLR,SKC,0.00,WeatherDisplay:10.37,2013-03-03 00:53:00,
2013-03-03 01:58:00,27.1,18.6,30.09,NE,45,1.6,0.0,70,0.00,CLR,SKC,0.00,WeatherDisplay:10.37,2013-03-03 00:58:00,
2013-03-03 02:03:00,27.0,18.5,30.09,NE,45,2.3,2.3,70,0.00,CLR,SKC,0.00,WeatherDisplay:10.37,2013-03-03 01:03:00,
2013-03-03 02:08:00,27.0,18.5,30.09,NE,45,2.3,0.0,70,0.00,CLR,SKC,0.00,WeatherDisplay:10.37,2013-03-03 01:08:00,
2013-03-03 02:13:00,27.0,18.5,30.09,NE,45,1.6,1.6,70,0.00,CLR,SKC,0.00,WeatherDisplay:10.37,2013-03-03 01:13:00,
2013-03-03 02:18:00,26.8,18.3,30.08,East,90,2.2,2.2,70,0.00,CLR,SKC,0.00,WeatherDisplay:10.37,2013-03-03 01:18:00,
2013-03-03 02:23:00,26.8,18.3,30.09,East,90,2.3,2.3,70,0.00,CLR,SKC,0.00,WeatherDisplay:10.37,2013-03-03 01:23:00,
2013-03-03 02:29:00,26.6,18.1,30.09,SE,135,2.3,2.3,70,0.00,CLR,SKC,0.00,WeatherDisplay:10.37,2013-03-03 01:29:00,
2013-03-03 02:34:00,26.6,18.1,30.08,North,0,3.5,3.5,70,0.00,CLR,SKC,0.00,WeatherDisplay:10.37,2013-03-03 01:34:00,
2013-03-03 02:39:00,26.6,18.1,30.09,SE,135,2.2,2.2,70,0.00,CLR,SKC,0.00,WeatherDisplay:10.37,2013-03-03 01:39:00,
2013-03-03 02:44:00,26.6,18.5,30.08,SW,225,1.2,0.0,71,0.00,CLR,SKC,0.00,WeatherDisplay:10.37,2013-03-03 01:44:00,
2013-03-03 02:49:00,26.6,18.5,30.08,East,90,1.6,1.6,71,0.00,CLR,SKC,0.00,WeatherDisplay:10.37,2013-03-03 01:49:00,
2013-03-03 02:55:00,26.4,18.6,30.09,ENE,72,1.0,2.0,72,0.00,CLR,SKC,0.00,WeatherDisplay:10.37,2013-03-03 01:55:00,
2013-03-03 03:00:00,26.6,18.5,30.08,ESE,111,1.0,2.0,71,0.00,CLR,SKC,0.00,WeatherDisplay:10.37,2013-03-03 02:00:00,
2013-03-03 03:05:00,26.6,18.5,30.08,SE,135,2.3,0.0,71,0.00,CLR,SKC,0.00,WeatherDisplay:10.37,2013-03-03 02:05:00,
2013-03-03 03:10:00,26.4,18.6,30.08,SE,135,3.5,3.5,72,0.00,CLR,SKC,0.00,WeatherDisplay:10.37,2013-03-03 02:10:00,
2013-03-03 03:15:00,26.2,18.4,30.08,East,90,3.5,3.5,72,0.00,CLR,SKC,0.00,WeatherDisplay:10.37,2013-03-03 02:15:00,
2013-03-03 03:20:00,26.1,18.3,30.08,NE,45,2.3,0.0,72,0.00,CLR,SKC,0.00,WeatherDisplay:10.37,2013-03-03 02:20:00,
2013-03-03 03:25:00,25.9,18.1,30.08,North,0,1.2,0.0,72,0.00,CLR,SKC,0.00,WeatherDisplay:10.37,2013-03-03 02:25:00,
2013-03-03 03:30:00,25.9,18.1,30.08,North,0,1.2,0.0,72,0.00,CLR,SKC,0.00,WeatherDisplay:10.37,2013-03-03 02:30:00,
2013-03-03 03:36:00,25.9,18.1,30.09,North,0,1.2,0.0,72,0.00,CLR,SKC,0.00,WeatherDisplay:10.37,2013-03-03 02:36:00,
2013-03-03 03:41:00,25.7,17.9,30.08,East,90,2.3,2.3,72,0.00,CLR,SKC,0.00,WeatherDisplay:10.37,2013-03-03 02:41:00,
2013-03-03 03:46:00,25.9,18.1,30.08,North,0,1.6,1.6,72,0.00,CLR,SKC,0.00,WeatherDisplay:10.37,2013-03-03 02:46:00,
2013-03-03 03:51:00,25.7,17.9,30.08,North,0,3.5,3.5,72,0.00,CLR,SKC,0.00,WeatherDisplay:10.37,2013-03-03 02:51:00,
2013-03-03 03:56:00,25.9,18.1,30.08,SE,135,2.3,2.3,72,0.00,CLR,SKC,0.00,WeatherDisplay:10.37,2013-03-03 02:56:00,
2013-03-03 04:01:00,25.9,18.1,30.08,NE,45,2.3,2.3,72,0.00,CLR,SKC,0.00,WeatherDisplay:10.37,2013-03-03 03:01:00,
2013-03-03 04:06:00,25.9,18.1,30.08,NE,45,2.3,2.3,72,0.00,CLR,SKC,0.00,WeatherDisplay:10.37,2013-03-03 03:06:00,
2013-03-03 04:12:00,25.9,18.4,30.08,ESE,112,1.6,1.6,73,0.00,CLR,SKC,0.00,WeatherDisplay:10.37,2013-03-03 03:12:00,
2013-03-03 04:17:00,25.9,18.4,30.08,North,0,1.2,0.0,73,0.00,CLR,SKC,0.00,WeatherDisplay:10.37,2013-03-03 03:17:00,
2013-03-03 04:22:00,25.7,18.2,30.08,SE,135,1.2,0.0,73,0.00,CLR,SKC,0.00,WeatherDisplay:10.37,2013-03-03 03:22:00,
2013-03-03 04:27:00,25.7,18.2,30.08,NE,45,2.3,2.3,73,0.00,CLR,SKC,0.00,WeatherDisplay:10.37,2013-03-03 03:27:00,
2013-03-03 04:32:00,25.7,18.2,30.08,South,180,2.3,2.3,73,0.00,CLR,SKC,0.00,WeatherDisplay:10.37,2013-03-03 03:32:00,
2013-03-03 04:37:00,25.7,18.2,30.08,East,90,2.3,0.0,73,0.00,CLR,SKC,0.00,WeatherDisplay:10.37,2013-03-03 03:37:00,
2013-03-03 04:42:00,25.7,18.2,30.08,SE,135,1.6,1.6,73,0.00,CLR,SKC,0.00,WeatherDisplay:10.37,2013-03-03 03:42:00,
2013-03-03 04:47:00,25.5,18.1,30.08,SE,135,1.2,0.0,73,0.00,CLR,SKC,0.00,WeatherDisplay:10.37,2013-03-03 03:47:00,
2013-03-03 04:52:00,25.3,17.9,30.08,South,180,1.6,1.6,73,0.00,CLR,SKC,0.00,WeatherDisplay:10.37,2013-03-03 03:52:00,
2013-03-03 04:57:00,25.3,17.9,30.08,NE,45,2.3,2.3,73,0.00,CLR,SKC,0.00,WeatherDisplay:10.37,2013-03-03 03:57:00,
2013-03-03 05:02:00,25.2,17.7,30.08,North,0,1.2,0.0,73,0.00,CLR,SKC,0.00,WeatherDisplay:10.37,2013-03-03 04:02:00,
2013-03-03 05:07:00,25.2,17.7,30.08,North,0,1.2,0.0,73,0.00,CLR,SKC,0.00,WeatherDisplay:10.37,2013-03-03 04:07:00,
2013-03-03 05:12:00,25.0,17.5,30.08,SE,135,1.6,1.6,73,0.00,CLR,SKC,0.00,WeatherDisplay:10.37,2013-03-03 04:12:00,
2013-03-03 05:17:00,25.0,17.5,30.08,SE,135,1.2,0.0,73,0.00,CLR,SKC,0.00,WeatherDisplay:10.37,2013-03-03 04:17:00,
2013-03-03 05:22:00,25.0,17.5,30.08,South,180,3.5,0.0,73,0.00,CLR,SKC,0.00,WeatherDisplay:10.37,2013-03-03 04:22:00,
2013-03-03 05:27:00,25.0,17.5,30.08,SW,225,2.2,2.2,73,0.00,CLR,SKC,0.00,WeatherDisplay:10.37,2013-03-03 04:27:00,
2013-03-03 05:32:00,25.0,17.5,30.07,SE,135,3.5,3.5,73,0.00,CLR,SKC,0.00,WeatherDisplay:10.37,2013-03-03 04:32:00,
2013-03-03 05:37:00,25.0,17.5,30.07,SE,135,1.2,0.0,73,0.00,CLR,SKC,0.00,WeatherDisplay:10.37,2013-03-03 04:37:00,
2013-03-03 05:42:00,24.8,17.4,30.06,SE,135,2.3,2.3,73,0.00,CLR,SKC,0.00,WeatherDisplay:10.37,2013-03-03 04:42:00,
2013-03-03 05:47:00,25.0,17.5,30.06,SW,225,3.5,3.5,73,0.00,CLR,SKC,0.00,WeatherDisplay:10.37,2013-03-03 04:47:00,
2013-03-03 05:52:00,25.0,17.5,30.06,SE,135,2.3,2.3,73,0.00,CLR,SKC,0.00,WeatherDisplay:10.37,2013-03-03 04:52:00,
2013-03-03 05:57:00,25.0,17.9,30.06,SE,135,1.2,0.0,74,0.00,CLR,SKC,0.00,WeatherDisplay:10.37,2013-03-03 04:57:00,
2013-03-03 06:00:00,25.0,17.9,30.06,SE,140,1.0,2.0,74,0.00,CLR,SKC,0.00,WeatherDisplay:10.37,2013-03-03 05:00:00,
2013-03-03 06:01:00,25.0,17.9,30.06,SE,135,1.2,0.0,74,0.00,CLR,SKC,0.00,WeatherDisplay:10.37,2013-03-03 05:01:00,
2013-03-03 06:06:00,25.0,17.9,30.06,NW,315,3.1,3.1,74,0.00,CLR,SKC,0.00,WeatherDisplay:10.37,2013-03-03 05:06:00,
2013-03-03 06:11:00,25.0,17.9,30.07,North,0,1.2,0.0,74,0.00,CLR,SKC,0.00,WeatherDisplay:10.37,2013-03-03 05:11:00,
2013-03-03 06:16:00,25.0,17.9,30.07,NW,315,1.2,0.0,74,0.00,CLR,SKC,0.00,WeatherDisplay:10.37,2013-03-03 05:16:00,
2013-03-03 06:17:00,25.0,17.9,30.06,NW,315,1.2,0.0,74,0.00,CLR,SKC,0.00,WeatherDisplay:10.37,2013-03-03 05:17:00,
2013-03-03 06:22:00,25.0,17.9,30.07,NW,315,3.5,3.5,74,0.00,CLR,SKC,0.00,WeatherDisplay:10.37,2013-03-03 05:22:00,
2013-03-03 06:27:00,25.0,17.9,30.07,East,90,1.6,1.6,74,0.00,CLR,SKC,0.00,WeatherDisplay:10.37,2013-03-03 05:27:00,
2013-03-03 06:32:00,25.0,17.9,30.07,NE,45,3.5,3.5,74,0.00,CLR,SKC,0.00,WeatherDisplay:10.37,2013-03-03 05:32:00,
2013-03-03 06:37:00,24.8,17.7,30.07,West,270,3.5,3.5,74,0.00,CLR,SKC,0.00,WeatherDisplay:10.37,2013-03-03 05:37:00,
2013-03-03 06:42:00,24.8,17.7,30.08,NE,45,1.2,0.0,74,0.00,CLR,SKC,0.00,WeatherDisplay:10.37,2013-03-03 05:42:00,
2013-03-03 06:47:00,24.8,17.7,30.07,West,270,1.6,0.0,74,0.00,,SKC,0.00,WeatherDisplay:10.37,2013-03-03 05:47:00,
2013-03-03 06:52:00,24.8,17.7,30.07,SE,135,2.2,2.2,74,0.00,,SKC,0.00,WeatherDisplay:10.37,2013-03-03 05:52:00,
2013-03-03 06:57:00,24.8,17.7,30.07,East,90,1.2,0.0,74,0.00,,SKC,0.00,WeatherDisplay:10.37,2013-03-03 05:57:00,
2013-03-03 07:02:00,25.0,17.9,30.08,West,270,1.2,0.0,74,0.00,,SKC,0.00,WeatherDisplay:10.37,2013-03-03 06:02:00,
2013-03-03 07:07:00,25.0,17.9,30.07,North,0,1.6,1.6,74,0.00,,SKC,0.00,WeatherDisplay:10.37,2013-03-03 06:07:00,
2013-03-03 07:13:00,25.2,18.0,30.07,NE,45,2.3,2.3,74,0.00,,SKC,0.00,WeatherDisplay:10.37,2013-03-03 06:13:00,
2013-03-03 07:18:00,25.2,18.0,30.07,South,180,1.6,1.6,74,0.00,,SKC,0.00,WeatherDisplay:10.37,2013-03-03 06:18:00,
2013-03-03 07:23:00,25.5,18.7,30.07,NE,45,3.5,3.5,75,0.00,,SKC,0.00,WeatherDisplay:10.37,2013-03-03 06:23:00,
2013-03-03 07:29:00,25.7,18.9,30.07,NE,45,2.3,2.3,75,0.00,,SKC,0.00,WeatherDisplay:10.37,2013-03-03 06:29:00,
2013-03-03 07:34:00,26.1,19.2,30.07,NE,45,2.3,2.3,75,0.00,,SKC,0.00,WeatherDisplay:10.37,2013-03-03 06:34:00,
2013-03-03 07:39:00,26.4,19.9,30.08,North,0,3.8,3.8,76,0.00,,SKC,0.00,WeatherDisplay:10.37,2013-03-03 06:39:00,
2013-03-03 07:44:00,27.0,20.1,30.08,SE,135,2.3,2.3,75,0.00,,SKC,0.00,WeatherDisplay:10.37,2013-03-03 06:44:00,
2013-03-03 07:49:00,27.3,20.4,30.08,NE,45,1.6,1.6,75,0.00,,SKC,0.00,WeatherDisplay:10.37,2013-03-03 06:49:00,
2013-03-03 07:54:00,27.9,21.3,30.08,SE,135,2.3,2.3,76,0.00,,SKC,0.00,WeatherDisplay:10.37,2013-03-03 06:54:00,
2013-03-03 07:59:00,28.2,21.6,30.08,South,180,2.3,2.3,76,0.00,,SKC,0.00,WeatherDisplay:10.37,2013-03-03 06:59:00,
2013-03-03 08:04:00,28.6,23.2,30.08,West,270,3.5,3.5,80,0.00,,SKC,0.00,WeatherDisplay:10.37,2013-03-03 07:04:00,
2013-03-03 08:09:00,29.5,24.4,30.08,South,180,2.3,2.3,81,0.00,,SKC,0.00,WeatherDisplay:10.37,2013-03-03 07:09:00,
2013-03-03 08:14:00,30.2,24.8,30.08,South,180,3.5,3.5,80,0.00,,SKC,0.00,WeatherDisplay:10.37,2013-03-03 07:14:00,
2013-03-03 08:19:00,30.9,25.5,30.08,South,180,4.6,4.6,80,0.00,CLR,SKC,0.00,WeatherDisplay:10.37,2013-03-03 07:19:00,
2013-03-03 08:24:00,31.8,26.4,30.08,South,180,5.8,5.8,80,0.00,CLR,SKC,0.00,WeatherDisplay:10.37,2013-03-03 07:24:00,
2013-03-03 08:29:00,32.7,26.9,30.08,SW,225,4.5,4.5,79,0.00,CLR,SKC,0.00,WeatherDisplay:10.37,2013-03-03 07:29:00,
2013-03-03 08:34:00,33.4,27.6,30.07,SW,225,4.6,4.6,79,0.00,CLR,SKC,0.00,WeatherDisplay:10.37,2013-03-03 07:34:00,
2013-03-03 08:39:00,34.3,27.9,30.08,South,180,6.9,6.9,77,0.00,CLR,SKC,0.00,WeatherDisplay:10.37,2013-03-03 07:39:00,
2013-03-03 08:44:00,35.1,27.9,30.08,SSW,202,7.6,7.6,75,0.00,CLR,SKC,0.00,WeatherDisplay:10.37,2013-03-03 07:44:00,
2013-03-03 08:49:00,35.6,27.8,30.07,SW,225,9.2,9.2,73,0.00,CLR,SKC,0.00,WeatherDisplay:10.37,2013-03-03 07:49:00,
2013-03-03 08:54:00,36.3,27.8,30.07,SW,225,7.6,7.6,71,0.00,CLR,SKC,0.00,WeatherDisplay:10.37,2013-03-03 07:54:00,
2013-03-03 08:59:00,36.9,28.0,30.07,South,180,8.1,8.1,70,0.00,CLR,SKC,0.00,WeatherDisplay:10.37,2013-03-03 07:59:00,
2013-03-03 09:04:00,37.6,29.7,30.07,NW,315,8.1,8.1,73,0.00,CLR,SKC,0.00,WeatherDisplay:10.37,2013-03-03 08:04:00,
2013-03-03 09:09:00,38.1,29.9,30.07,South,180,8.1,8.1,72,0.00,CLR,SKC,0.00,WeatherDisplay:10.37,2013-03-03 08:09:00,
2013-03-03 09:14:00,38.5,29.9,30.06,SW,225,4.6,4.6,71,0.00,CLR,SKC,0.00,WeatherDisplay:10.37,2013-03-03 08:14:00,
2013-03-03 09:19:00,39.0,30.1,30.06,NW,315,5.8,5.8,70,0.00,CLR,SKC,0.00,WeatherDisplay:10.37,2013-03-03 08:19:00,
2013-03-03 09:24:00,39.6,29.5,30.06,SW,225,5.8,5.8,67,0.00,CLR,SKC,0.00,WeatherDisplay:10.37,2013-03-03 08:24:00,
2013-03-03 09:29:00,40.1,28.9,30.06,West,270,5.8,5.8,64,0.00,CLR,SKC,0.00,WeatherDisplay:10.37,2013-03-03 08:29:00,
2013-03-03 09:34:00,40.8,29.2,30.06,NW,315,5.8,5.8,63,0.00,CLR,SKC,0.00,WeatherDisplay:10.37,2013-03-03 08:34:00,
2013-03-03 09:39:00,41.2,28.7,30.06,West,270,3.8,3.8,61,0.00,CLR,SKC,0.00,WeatherDisplay:10.37,2013-03-03 08:39:00,
2013-03-03 09:44:00,41.7,29.3,30.06,NW,315,6.9,6.9,61,0.00,CLR,SKC,0.00,WeatherDisplay:10.37,2013-03-03 08:44:00,
2013-03-03 09:49:00,42.3,29.4,30.06,NW,315,5.8,5.8,60,0.00,CLR,SKC,0.00,WeatherDisplay:10.37,2013-03-03 08:49:00,
2013-03-03 09:54:00,42.6,28.0,30.06,West,270,6.9,6.9,56,0.00,CLR,SKC,0.00,WeatherDisplay:10.37,2013-03-03 08:54:00,
2013-03-03 09:59:00,42.8,27.3,30.06,WNW,292,6.9,6.9,54,0.00,CLR,SKC,0.00,WeatherDisplay:10.37,2013-03-03 08:59:00,
2013-03-03 10:04:00,43.2,27.2,30.06,West,270,15.0,15.0,53,0.00,CLR,SKC,0.00,WeatherDisplay:10.37,2013-03-03 09:04:00,
2013-03-03 10:09:00,43.5,26.6,30.06,NW,315,9.2,9.2,51,0.00,CLR,SKC,0.00,WeatherDisplay:10.37,2013-03-03 09:09:00,
2013-03-03 10:14:00,43.7,26.3,30.05,North,0,10.4,10.4,50,0.00,CLR,SKC,0.00,WeatherDisplay:10.37,2013-03-03 09:14:00,
2013-03-03 10:19:00,44.1,26.1,30.05,SW,225,5.8,5.8,49,0.00,CLR,SKC,0.00,WeatherDisplay:10.37,2013-03-03 09:19:00,
2013-03-03 10:24:00,44.4,26.9,30.05,NNW,338,10.4,10.4,50,0.00,CLR,SKC,0.00,WeatherDisplay:10.37,2013-03-03 09:24:00,
2013-03-03 10:29:00,44.6,26.1,30.06,NE,45,3.8,3.8,48,0.00,CLR,SKC,0.00,WeatherDisplay:10.37,2013-03-03 09:29:00,
2013-03-03 10:34:00,45.1,26.6,30.05,WSW,248,5.8,5.8,48,0.00,CLR,SKC,0.00,WeatherDisplay:10.37,2013-03-03 09:34:00,
2013-03-03 10:39:00,45.5,26.9,30.06,NW,315,6.9,6.9,48,0.00,CLR,SKC,0.00,WeatherDisplay:10.37,2013-03-03 09:39:00,
2013-03-03 10:44:00,45.3,24.7,30.05,NW,315,5.8,5.8,44,0.00,CLR,SKC,0.00,WeatherDisplay:10.37,2013-03-03 09:44:00,
2013-03-03 10:49:00,45.5,24.3,30.05,WNW,292,9.2,9.2,43,0.00,CLR,SKC,0.00,WeatherDisplay:10.37,2013-03-03 09:49:00,
2013-03-03 10:54:00,45.7,24.4,30.04,WNW,292,8.1,8.1,43,0.00,CLR,SKC,0.00,WeatherDisplay:10.37,2013-03-03 09:54:00,
2013-03-03 10:59:00,45.7,23.9,30.06,East,90,8.1,8.1,42,0.00,CLR,SKC,0.00,WeatherDisplay:10.37,2013-03-03 09:59:00,
2013-03-03 11:04:00,45.3,22.4,30.05,SW,225,8.3,8.3,40,0.00,CLR,SKC,0.00,WeatherDisplay:10.37,2013-03-03 10:04:00,
2013-03-03 11:09:00,45.3,22.4,30.05,North,0,8.3,8.3,40,0.00,CLR,SKC,0.00,WeatherDisplay:10.37,2013-03-03 10:09:00,
2013-03-03 11:14:00,45.3,23.0,30.05,NW,315,8.3,8.3,41,0.00,CLR,SKC,0.00,WeatherDisplay:10.37,2013-03-03 10:14:00,
2013-03-03 11:19:00,45.3,23.5,30.05,West,270,6.0,6.0,42,0.00,CLR,SKC,0.00,WeatherDisplay:10.37,2013-03-03 10:19:00,
2013-03-03 11:24:00,45.3,23.0,30.05,West,270,5.8,5.8,41,0.00,CLR,SKC,0.00,WeatherDisplay:10.37,2013-03-03 10:24:00,
2013-03-03 11:29:00,45.3,23.0,30.04,North,0,5.8,5.8,41,0.00,CLR,SKC,0.00,WeatherDisplay:10.37,2013-03-03 10:29:00,
2013-03-03 11:34:00,45.3,23.0,30.04,West,270,9.2,9.2,41,0.00,CLR,SKC,0.00,WeatherDisplay:10.37,2013-03-03 10:34:00,
2013-03-03 11:39:00,45.7,23.9,30.04,West,270,6.9,6.9,42,0.00,CLR,SKC,0.00,WeatherDisplay:10.37,2013-03-03 10:39:00,
2013-03-03 11:44:00,45.7,23.9,30.04,NW,315,6.0,6.0,42,0.00,CLR,SKC,0.00,WeatherDisplay:10.37,2013-03-03 10:44:00,
2013-03-03 11:49:00,45.7,23.9,30.03,West,270,6.9,6.9,42,0.00,CLR,SKC,0.00,WeatherDisplay:10.37,2013-03-03 10:49:00,
2013-03-03 11:54:00,45.9,23.5,30.04,West,270,10.4,10.4,41,0.00,CLR,SKC,0.00,WeatherDisplay:10.37,2013-03-03 10:54:00,
2013-03-03 11:59:00,45.9,23.5,30.03,NNW,338,9.2,9.2,41,0.00,CLR,SKC,0.00,WeatherDisplay:10.37,2013-03-03 10:59:00,
2013-03-03 12:04:00,45.9,23.5,30.03,NNW,338,9.2,9.2,41,0.00,CLR,SKC,0.00,WeatherDisplay:10.37,2013-03-03 11:04:00,
2013-03-03 12:09:00,46.2,23.8,30.03,NW,315,9.2,9.2,41,0.00,CLR,SKC,0.00,WeatherDisplay:10.37,2013-03-03 11:09:00,
2013-03-03 12:14:00,46.2,23.8,30.03,NW,315,10.4,10.4,41,0.00,CLR,SKC,0.00,WeatherDisplay:10.37,2013-03-03 11:14:00,
2013-03-03 12:19:00,46.0,23.6,30.03,NW,315,10.4,10.4,41,0.00,CLR,SKC,0.00,WeatherDisplay:10.37,2013-03-03 11:19:00,
2013-03-03 12:24:00,46.0,23.6,30.03,NW,315,18.4,18.4,41,0.00,CLR,SKC,0.00,WeatherDisplay:10.37,2013-03-03 11:24:00,
2013-03-03 12:29:00,45.7,23.3,30.03,NW,315,11.5,11.5,41,0.00,CLR,SKC,0.00,WeatherDisplay:10.37,2013-03-03 11:29:00,
2013-03-03 12:34:00,45.9,24.0,30.03,NW,315,12.7,12.7,42,0.00,CLR,SKC,0.00,WeatherDisplay:10.37,2013-03-03 11:34:00,
2013-03-03 12:39:00,45.9,24.0,30.02,NW,315,11.5,11.5,42,0.00,CLR,SKC,0.00,WeatherDisplay:10.37,2013-03-03 11:39:00,
2013-03-03 12:44:00,45.7,23.9,30.02,West,270,12.7,12.7,42,0.00,CLR,SKC,0.00,WeatherDisplay:10.37,2013-03-03 11:44:00,
2013-03-03 12:50:00,45.7,23.9,30.02,WNW,284,5.0,13.0,42,0.00,CLR,SKC,0.00,WeatherDisplay:10.37,2013-03-03 11:50:00,
2013-03-03 12:55:00,45.9,24.0,30.02,WNW,289,3.0,8.0,42,0.00,CLR,SKC,0.00,WeatherDisplay:10.37,2013-03-03 11:55:00,
2013-03-03 13:00:00,46.3,24.4,30.01,WNW,295,3.0,12.0,42,0.00,CLR,SKC,0.00,WeatherDisplay:10.37,2013-03-03 12:00:00,
2013-03-03 13:05:00,46.6,25.3,30.00,NW,315,10.7,10.7,43,0.00,CLR,SKC,0.00,WeatherDisplay:10.37,2013-03-03 12:05:00,
2013-03-03 13:10:00,46.4,24.5,30.00,West,270,10.4,10.4,42,0.00,CLR,SKC,0.00,WeatherDisplay:10.37,2013-03-03 12:10:00,
2013-03-03 13:15:00,46.6,25.3,30.01,SW,225,13.0,13.0,43,0.00,CLR,SKC,0.00,WeatherDisplay:10.37,2013-03-03 12:15:00,
2013-03-03 13:20:00,46.8,25.4,30.00,NW,315,10.4,10.4,43,0.00,CLR,SKC,0.00,WeatherDisplay:10.37,2013-03-03 12:20:00,
2013-03-03 13:25:00,46.9,25.6,30.00,NW,315,10.7,10.7,43,0.00,CLR,SKC,0.00,WeatherDisplay:10.37,2013-03-03 12:25:00,
2013-03-03 13:30:00,46.9,25.0,30.00,South,180,13.8,13.8,42,0.00,CLR,SKC,0.00,WeatherDisplay:10.37,2013-03-03 12:30:00,
2013-03-03 13:35:00,46.9,25.0,30.00,NW,315,16.1,16.1,42,0.00,CLR,SKC,0.00,WeatherDisplay:10.37,2013-03-03 12:35:00,
2013-03-03 13:40:00,46.9,25.0,30.00,North,0,13.8,13.8,42,0.00,CLR,SKC,0.00,WeatherDisplay:10.37,2013-03-03 12:40:00,
2013-03-03 13:45:00,46.8,24.9,30.00,NW,315,11.4,11.4,42,0.00,CLR,SKC,0.00,WeatherDisplay:10.37,2013-03-03 12:45:00,
2013-03-03 13:50:00,46.8,24.3,30.00,NW,315,13.8,13.8,41,0.00,CLR,SKC,0.00,WeatherDisplay:10.37,2013-03-03 12:50:00,
2013-03-03 13:55:00,46.8,23.1,30.00,North,0,19.6,19.6,39,0.00,CLR,SKC,0.00,WeatherDisplay:10.37,2013-03-03 12:55:00,
2013-03-03 14:00:00,46.6,22.3,30.00,West,270,12.7,12.7,38,0.00,CLR,SKC,0.00,WeatherDisplay:10.37,2013-03-03 13:00:00,
2013-03-03 14:05:00,46.6,22.3,30.00,NW,315,11.4,11.4,38,0.00,CLR,SKC,0.00,WeatherDisplay:10.37,2013-03-03 13:05:00,
2013-03-03 14:10:00,46.8,22.5,29.99,North,0,19.6,19.6,38,0.00,CLR,SKC,0.00,WeatherDisplay:10.37,2013-03-03 13:10:00,
2013-03-03 14:15:00,46.9,23.2,30.00,NW,315,15.9,15.9,39,0.00,CLR,SKC,0.00,WeatherDisplay:10.37,2013-03-03 13:15:00,
2013-03-03 14:20:00,46.9,22.0,29.99,NW,315,21.9,21.9,37,0.00,CLR,SKC,0.00,WeatherDisplay:10.37,2013-03-03 13:20:00,
2013-03-03 14:25:00,46.8,21.8,29.99,NW,315,13.8,13.8,37,0.00,CLR,SKC,0.00,WeatherDisplay:10.37,2013-03-03 13:25:00,
2013-03-03 14:30:00,46.8,22.5,29.99,WNW,292,16.1,16.1,38,0.00,CLR,SKC,0.00,WeatherDisplay:10.37,2013-03-03 13:30:00,
2013-03-03 14:35:00,46.8,22.5,29.99,NW,315,18.4,18.4,38,0.00,CLR,SKC,0.00,WeatherDisplay:10.37,2013-03-03 13:35:00,
2013-03-03 14:40:00,46.8,23.7,29.99,West,270,16.1,16.1,40,0.00,CLR,SKC,0.00,WeatherDisplay:10.37,2013-03-03 13:40:00,
2013-03-03 14:45:00,46.9,23.8,29.99,SW,225,19.6,19.6,40,0.00,CLR,SKC,0.00,WeatherDisplay:10.37,2013-03-03 13:45:00,
2013-03-03 14:50:00,46.6,22.9,29.98,NW,315,12.7,12.7,39,0.00,CLR,SKC,0.00,WeatherDisplay:10.37,2013-03-03 13:50:00,
2013-03-03 14:55:00,46.8,24.3,29.99,WNW,292,12.1,12.1,41,0.00,CLR,SKC,0.00,WeatherDisplay:10.37,2013-03-03 13:55:00,
2013-03-03 15:00:00,46.8,24.9,29.99,WNW,292,15.0,15.0,42,0.00,CLR,SKC,0.00,WeatherDisplay:10.37,2013-03-03 14:00:00,
2013-03-03 15:05:00,46.8,24.3,29.98,NW,315,13.8,13.8,41,0.00,CLR,SKC,0.00,WeatherDisplay:10.37,2013-03-03 14:05:00,
2013-03-03 15:10:00,46.8,24.9,29.98,West,270,13.7,13.7,42,0.00,CLR,SKC,0.00,WeatherDisplay:10.37,2013-03-03 14:10:00,
2013-03-03 15:15:00,46.9,25.0,29.99,NW,315,10.7,10.7,42,0.00,CLR,SKC,0.00,WeatherDisplay:10.37,2013-03-03 14:15:00,
2013-03-03 15:20:00,47.1,24.6,29.99,NW,315,12.7,12.7,41,0.00,CLR,SKC,0.00,WeatherDisplay:10.37,2013-03-03 14:20:00,
2013-03-03 15:25:00,47.3,24.8,29.99,NW,315,19.6,19.6,41,0.00,CLR,SKC,0.00,WeatherDisplay:10.37,2013-03-03 14:25:00,
2013-03-03 15:30:00,46.9,25.0,29.99,West,270,20.7,20.7,42,0.00,CLR,SKC,0.00,WeatherDisplay:10.37,2013-03-03 14:30:00,
2013-03-03 15:35:00,46.6,24.7,29.99,West,270,17.3,17.3,42,0.00,CLR,SKC,0.00,WeatherDisplay:10.37,2013-03-03 14:35:00,
2013-03-03 15:40:00,46.6,25.3,29.98,West,270,13.8,13.8,43,0.00,CLR,SKC,0.00,WeatherDisplay:10.37,2013-03-03 14:40:00,
2013-03-03 15:45:00,46.4,25.1,29.99,SW,225,16.8,16.8,43,0.00,CLR,SKC,0.00,WeatherDisplay:10.37,2013-03-03 14:45:00,
2013-03-03 15:50:00,46.4,25.6,29.98,NW,315,15.0,15.0,44,0.00,CLR,SKC,0.00,WeatherDisplay:10.37,2013-03-03 14:50:00,
2013-03-03 15:55:00,46.0,24.8,29.99,WNW,292,12.7,12.7,43,0.00,CLR,SKC,0.00,WeatherDisplay:10.37,2013-03-03 14:55:00,
2013-03-03 16:00:00,46.0,25.3,29.98,WNW,292,13.0,13.0,44,0.00,CLR,SKC,0.00,WeatherDisplay:10.37,2013-03-03 15:00:00,
2013-03-03 16:05:00,45.7,25.0,29.98,NW,315,19.6,19.6,44,0.00,CLR,SKC,0.00,WeatherDisplay:10.37,2013-03-03 15:05:00,
2013-03-03 16:10:00,45.5,24.8,29.99,NW,315,8.1,8.1,44,0.00,CLR,SKC,0.00,WeatherDisplay:10.37,2013-03-03 15:10:00,
2013-03-03 16:15:00,45.3,25.2,29.98,SW,225,11.5,11.5,45,0.00,CLR,SKC,0.00,WeatherDisplay:10.37,2013-03-03 15:15:00,
2013-03-03 16:20:00,45.3,25.7,29.98,West,270,17.3,17.3,46,0.00,CLR,SKC,0.00,WeatherDisplay:10.37,2013-03-03 15:20:00,
2013-03-03 16:25:00,45.1,26.1,29.99,West,270,15.0,15.0,47,0.00,CLR,SKC,0.00,WeatherDisplay:10.37,2013-03-03 15:25:00,
2013-03-03 16:30:00,45.0,26.4,29.98,West,270,10.4,10.4,48,0.00,CLR,SKC,0.00,WeatherDisplay:10.37,2013-03-03 15:30:00,
2013-03-03 16:35:00,45.0,26.4,29.99,NW,315,10.4,10.4,48,0.00,CLR,SKC,0.00,WeatherDisplay:10.37,2013-03-03 15:35:00,
2013-03-03 16:40:00,45.0,26.4,29.98,NW,315,10.4,10.4,48,0.00,CLR,SKC,0.00,WeatherDisplay:10.37,2013-03-03 15:40:00,
2013-03-03 16:45:00,45.0,26.4,29.98,West,270,8.1,8.1,48,0.00,CLR,SKC,0.00,WeatherDisplay:10.37,2013-03-03 15:45:00,
2013-03-03 16:50:00,44.8,26.3,29.99,North,0,10.4,10.4,48,0.00,CLR,SKC,0.00,WeatherDisplay:10.37,2013-03-03 15:50:00,
2013-03-03 16:55:00,44.6,26.6,29.98,NW,315,11.5,11.5,49,0.00,CLR,SKC,0.00,WeatherDisplay:10.37,2013-03-03 15:55:00,
2013-03-03 17:00:00,44.4,26.9,29.98,WNW,292,10.4,10.4,50,0.00,CLR,SKC,0.00,WeatherDisplay:10.37,2013-03-03 16:00:00,
2013-03-03 17:05:00,44.2,26.8,29.98,NW,315,12.7,12.7,50,0.00,CLR,SKC,0.00,WeatherDisplay:10.37,2013-03-03 16:05:00,
2013-03-03 17:10:00,44.1,27.1,29.98,NW,315,13.0,13.0,51,0.00,CLR,SKC,0.00,WeatherDisplay:10.37,2013-03-03 16:10:00,
2013-03-03 17:15:00,43.9,26.9,29.98,NE,45,12.7,12.7,51,0.00,CLR,SKC,0.00,WeatherDisplay:10.37,2013-03-03 16:15:00,
2013-03-03 17:20:00,43.7,27.2,29.99,NW,315,13.8,13.8,52,0.00,CLR,SKC,0.00,WeatherDisplay:10.37,2013-03-03 16:20:00,
2013-03-03 17:25:00,43.7,27.2,29.99,NW,315,18.4,18.4,52,0.00,CLR,SKC,0.00,WeatherDisplay:10.37,2013-03-03 16:25:00,
2013-03-03 17:30:00,43.3,26.9,29.99,NW,315,17.3,17.3,52,0.00,CLR,SKC,0.00,WeatherDisplay:10.37,2013-03-03 16:30:00,
2013-03-03 17:35:00,43.2,26.2,29.99,North,0,15.2,15.2,51,0.00,CLR,SKC,0.00,WeatherDisplay:10.37,2013-03-03 16:35:00,
2013-03-03 17:40:00,42.8,25.9,29.99,NW,315,17.3,17.3,51,0.00,CLR,SKC,0.00,WeatherDisplay:10.37,2013-03-03 16:40:00,
2013-03-03 17:45:00,42.8,25.9,29.99,NW,315,10.4,10.4,51,0.00,CLR,SKC,0.00,WeatherDisplay:10.37,2013-03-03 16:45:00,
2013-03-03 17:50:00,42.4,26.0,29.99,WNW,292,14.5,14.5,52,0.00,CLR,SKC,0.00,WeatherDisplay:10.37,2013-03-03 16:50:00,
2013-03-03 17:55:00,42.3,25.9,29.99,West,270,15.0,15.0,52,0.00,CLR,SKC,0.00,WeatherDisplay:10.37,2013-03-03 16:55:00,
2013-03-03 18:00:00,42.3,25.4,29.99,NNE,13,12.7,12.7,51,0.00,CLR,SKC,0.00,WeatherDisplay:10.37,2013-03-03 17:00:00,
2013-03-03 18:05:00,42.1,25.2,29.99,North,0,10.7,10.7,51,0.00,CLR,SKC,0.00,WeatherDisplay:10.37,2013-03-03 17:05:00,
2013-03-03 18:10:00,42.1,25.2,30.00,West,270,5.4,5.4,51,0.00,CLR,SKC,0.00,WeatherDisplay:10.37,2013-03-03 17:10:00,
2013-03-03 18:15:00,41.9,25.1,30.00,NW,315,3.5,3.5,51,0.00,CLR,SKC,0.00,WeatherDisplay:10.37,2013-03-03 17:15:00,
2013-03-03 18:20:00,41.7,25.4,30.00,SW,225,6.9,6.9,52,0.00,CLR,SKC,0.00,WeatherDisplay:10.37,2013-03-03 17:20:00,
2013-03-03 18:25:00,41.5,25.2,30.00,WSW,248,5.8,5.8,52,0.00,CLR,SKC,0.00,WeatherDisplay:10.37,2013-03-03 17:25:00,
2013-03-03 18:30:00,41.5,25.2,30.00,SSW,202,9.2,9.2,52,0.00,CLR,SKC,0.00,WeatherDisplay:10.37,2013-03-03 17:30:00,
2013-03-03 18:35:00,41.4,25.5,30.00,NW,315,10.7,10.7,53,0.00,CLR,SKC,0.00,WeatherDisplay:10.37,2013-03-03 17:35:00,
2013-03-03 18:40:00,41.4,25.5,30.00,NW,315,12.7,12.7,53,0.00,CLR,SKC,0.00,WeatherDisplay:10.37,2013-03-03 17:40:00,
2013-03-03 18:45:00,41.2,25.3,30.00,NW,315,16.1,16.1,53,0.00,CLR,SKC,0.00,WeatherDisplay:10.37,2013-03-03 17:45:00,
2013-03-03 18:50:00,41.2,25.8,30.00,NW,315,15.0,15.0,54,0.00,SCT,SKC,0.00,WeatherDisplay:10.37,2013-03-03 17:50:00,
2013-03-03 18:55:00,41.2,25.8,30.00,NW,315,10.4,10.4,54,0.00,SCT,SKC,0.00,WeatherDisplay:10.37,2013-03-03 17:55:00,
2013-03-03 19:01:00,41.0,25.6,30.00,West,270,6.9,6.9,54,0.00,SCT,SKC,0.00,WeatherDisplay:10.37,2013-03-03 18:01:00,
2013-03-03 19:07:00,40.8,25.9,30.00,West,270,9.2,9.2,55,0.00,SCT,SKC,0.00,WeatherDisplay:10.37,2013-03-03 18:07:00,
2013-03-03 19:12:00,40.6,25.7,30.00,NW,315,8.1,8.1,55,0.00,SCT,SKC,0.00,WeatherDisplay:10.37,2013-03-03 18:12:00,
2013-03-03 19:17:00,40.6,25.7,30.00,North,0,13.8,13.8,55,0.00,CLR,SKC,0.00,WeatherDisplay:10.37,2013-03-03 18:17:00,
2013-03-03 19:22:00,40.6,25.7,30.00,West,270,12.7,12.7,55,0.00,CLR,SKC,0.00,WeatherDisplay:10.37,2013-03-03 18:22:00,
2013-03-03 19:28:00,40.6,25.7,30.00,NW,315,15.0,15.0,55,0.00,CLR,SKC,0.00,WeatherDisplay:10.37,2013-03-03 18:28:00,
2013-03-03 19:33:00,40.8,25.9,30.01,North,0,19.6,19.6,55,0.00,CLR,SKC,0.00,WeatherDisplay:10.37,2013-03-03 18:33:00,
2013-03-03 19:38:00,40.6,25.7,30.00,NE,45,10.4,10.4,55,0.00,CLR,SKC,0.00,WeatherDisplay:10.37,2013-03-03 18:38:00,
2013-03-03 19:43:00,40.5,25.5,30.00,NW,315,12.7,12.7,55,0.00,CLR,SKC,0.00,WeatherDisplay:10.37,2013-03-03 18:43:00,
2013-03-03 19:48:00,40.5,25.5,30.00,South,180,9.2,9.2,55,0.00,CLR,SKC,0.00,WeatherDisplay:10.37,2013-03-03 18:48:00,
2013-03-03 19:53:00,40.5,25.5,30.00,North,0,18.4,18.4,55,0.00,CLR,SKC,0.00,WeatherDisplay:10.37,2013-03-03 18:53:00,
2013-03-03 19:58:00,40.3,25.4,30.01,NE,45,12.7,12.7,55,0.00,CLR,SKC,0.00,WeatherDisplay:10.37,2013-03-03 18:58:00,
2013-03-03 20:03:00,40.1,25.2,30.01,NW,315,8.3,8.3,55,0.00,CLR,SKC,0.00,WeatherDisplay:10.37,2013-03-03 19:03:00,
2013-03-03 20:09:00,40.1,25.6,30.01,NNW,338,20.7,20.7,56,0.00,CLR,SKC,0.00,WeatherDisplay:10.37,2013-03-03 19:09:00,
2013-03-03 20:15:00,40.1,25.6,30.00,NNW,328,7.0,21.0,56,0.00,CLR,SKC,0.00,WeatherDisplay:10.37,2013-03-03 19:15:00,
2013-03-03 20:20:00,40.1,25.6,30.00,NNW,327,6.0,17.0,56,0.00,CLR,SKC,0.00,WeatherDisplay:10.37,2013-03-03 19:20:00,
2013-03-03 20:25:00,40.1,25.6,30.01,NNW,332,13.0,22.0,56,0.00,CLR,SKC,0.00,WeatherDisplay:10.37,2013-03-03 19:25:00,
2013-03-03 20:30:00,40.0,25.6,30.01,North,353,10.0,22.0,56,0.00,CLR,SKC,0.00,WeatherDisplay:10.37,2013-03-03 19:30:00,
2013-03-03 20:35:00,39.9,25.5,30.01,NW,315,16.1,16.1,56,0.00,CLR,SKC,0.00,WeatherDisplay:10.37,2013-03-03 19:35:00,
2013-03-03 20:40:00,39.7,25.3,30.00,North,0,20.7,20.7,56,0.00,CLR,SKC,0.00,WeatherDisplay:10.37,2013-03-03 19:40:00,
2013-03-03 20:46:00,39.6,25.1,30.01,NW,315,12.7,12.7,56,0.00,CLR,SKC,0.00,WeatherDisplay:10.37,2013-03-03 19:46:00,
2013-03-03 20:51:00,39.6,25.1,30.01,NW,315,15.0,15.0,56,0.00,CLR,SKC,0.00,WeatherDisplay:10.37,2013-03-03 19:51:00,
2013-03-03 20:56:00,39.4,25.0,30.02,NNW,338,12.7,12.7,56,0.00,CLR,SKC,0.00,WeatherDisplay:10.37,2013-03-03 19:56:00,
2013-03-03 21:01:00,39.2,24.8,30.00,NW,315,13.7,13.7,56,0.00,CLR,SKC,0.00,WeatherDisplay:10.37,2013-03-03 20:01:00,
2013-03-03 21:06:00,39.0,25.1,30.01,NW,315,19.6,19.6,57,0.00,CLR,SKC,0.00,WeatherDisplay:10.37,2013-03-03 20:06:00,
2013-03-03 21:11:00,39.0,25.1,30.01,NW,315,17.3,17.3,57,0.00,CLR,SKC,0.00,WeatherDisplay:10.37,2013-03-03 20:11:00,
2013-03-03 21:17:00,38.8,24.5,30.02,NW,315,13.8,13.8,56,0.00,CLR,SKC,0.00,WeatherDisplay:10.37,2013-03-03 20:17:00,
2013-03-03 21:22:00,38.7,24.3,30.02,NW,315,8.1,8.1,56,0.00,CLR,SKC,0.00,WeatherDisplay:10.37,2013-03-03 20:22:00,
2013-03-03 21:27:00,38.5,24.1,30.01,NW,315,9.2,9.2,56,0.00,CLR,SKC,0.00,WeatherDisplay:10.37,2013-03-03 20:27:00,
2013-03-03 21:32:00,38.5,24.1,30.01,NW,315,10.4,10.4,56,0.00,CLR,SKC,0.00,WeatherDisplay:10.37,2013-03-03 20:32:00,
2013-03-03 21:38:00,38.3,24.0,30.03,NNW,338,4.5,4.5,56,0.00,CLR,SKC,0.00,WeatherDisplay:10.37,2013-03-03 20:38:00,
2013-03-03 21:43:00,38.1,23.8,30.03,SW,225,4.6,4.6,56,0.00,CLR,SKC,0.00,WeatherDisplay:10.37,2013-03-03 20:43:00,
2013-03-03 21:48:00,38.1,23.8,30.03,South,180,3.5,3.5,56,0.00,CLR,SKC,0.00,WeatherDisplay:10.37,2013-03-03 20:48:00,
2013-03-03 21:53:00,37.8,23.9,30.03,SE,135,2.3,2.3,57,0.00,CLR,SKC,0.00,WeatherDisplay:10.37,2013-03-03 20:53:00,
2013-03-03 21:58:00,37.2,21.6,30.03,SE,135,3.5,3.5,53,0.00,CLR,SKC,0.00,WeatherDisplay:10.37,2013-03-03 20:58:00,
2013-03-03 22:03:00,37.0,21.5,30.03,SE,135,3.5,3.5,53,0.00,CLR,SKC,0.00,WeatherDisplay:10.37,2013-03-03 21:03:00,
2013-03-03 22:08:00,36.3,21.2,30.03,East,90,3.8,3.8,54,0.00,CLR,SKC,0.00,WeatherDisplay:10.37,2013-03-03 21:08:00,
2013-03-03 22:13:00,36.1,21.5,30.04,NE,45,5.8,5.8,55,0.00,CLR,SKC,0.00,WeatherDisplay:10.37,2013-03-03 21:13:00,
2013-03-03 22:18:00,36.0,21.3,30.04,East,90,3.5,3.5,55,0.00,CLR,SKC,0.00,WeatherDisplay:10.37,2013-03-03 21:18:00,
2013-03-03 22:23:00,35.6,21.0,30.04,ENE,68,3.5,3.5,55,0.00,CLR,SKC,0.00,WeatherDisplay:10.37,2013-03-03 21:23:00,
2013-03-03 22:28:00,35.4,21.7,30.04,NE,45,4.6,4.6,57,0.00,CLR,SKC,0.00,WeatherDisplay:10.37,2013-03-03 21:28:00,
2013-03-03 22:33:00,35.2,21.9,30.04,East,90,5.8,5.8,58,0.00,CLR,SKC,0.00,WeatherDisplay:10.37,2013-03-03 21:33:00,
2013-03-03 22:38:00,35.1,22.2,30.04,North,0,5.8,5.8,59,0.00,CLR,SKC,0.00,WeatherDisplay:10.37,2013-03-03 21:38:00,
2013-03-03 22:43:00,35.1,22.2,30.05,WNW,292,6.9,6.9,59,0.00,CLR,SKC,0.00,WeatherDisplay:10.37,2013-03-03 21:43:00,
2013-03-03 22:48:00,35.2,22.3,30.04,NW,315,6.0,6.0,59,0.00,CLR,SKC,0.00,WeatherDisplay:10.37,2013-03-03 21:48:00,
2013-03-03 22:53:00,35.4,22.5,30.04,NW,315,8.3,8.3,59,0.00,CLR,SKC,0.00,WeatherDisplay:10.37,2013-03-03 21:53:00,
2013-03-03 22:58:00,35.6,22.3,30.05,NE,45,5.4,5.4,58,0.00,CLR,SKC,0.00,WeatherDisplay:10.37,2013-03-03 21:58:00,
2013-03-03 23:03:00,35.8,22.4,30.06,North,0,3.1,3.1,58,0.00,CLR,SKC,0.00,WeatherDisplay:10.37,2013-03-03 22:03:00,
2013-03-03 23:08:00,35.6,22.3,30.05,NE,45,3.5,3.5,58,0.00,CLR,SKC,0.00,WeatherDisplay:10.37,2013-03-03 22:08:00,
2013-03-03 23:13:00,35.2,22.3,30.05,NW,315,6.9,6.9,59,0.00,CLR,SKC,0.00,WeatherDisplay:10.37,2013-03-03 22:13:00,
2013-03-03 23:18:00,35.2,22.3,30.05,NW,315,4.6,4.6,59,0.00,CLR,SKC,0.00,WeatherDisplay:10.37,2013-03-03 22:18:00,
2013-03-03 23:23:00,35.1,22.2,30.06,SE,135,4.6,4.6,59,0.00,CLR,SKC,0.00,WeatherDisplay:10.37,2013-03-03 22:23:00,
2013-03-03 23:28:00,35.1,22.2,30.06,South,180,3.5,3.5,59,0.00,CLR,SKC,0.00,WeatherDisplay:10.37,2013-03-03 22:28:00,
2013-03-03 23:33:00,34.5,21.7,30.06,SE,135,2.3,2.3,59,0.00,CLR,SKC,0.00,WeatherDisplay:10.37,2013-03-03 22:33:00,
2013-03-03 23:38:00,34.2,21.7,30.06,East,90,3.5,3.5,60,0.00,CLR,SKC,0.00,WeatherDisplay:10.37,2013-03-03 22:38:00,
2013-03-03 23:43:00,33.6,21.6,30.06,NW,315,2.3,2.3,61,0.00,CLR,SKC,0.00,WeatherDisplay:10.37,2013-03-03 22:43:00,
2013-03-03 23:48:00,33.3,21.3,30.06,NE,45,3.5,3.5,61,0.00,CLR,SKC,0.00,WeatherDisplay:10.37,2013-03-03 22:48:00,
2013-03-03 23:53:00,32.9,20.9,30.06,North,0,4.5,4.5,61,0.00,CLR,SKC,0.00,WeatherDisplay:10.37,2013-03-03 22:53:00,
2013-03-03 23:58:00,32.7,21.1,30.06,North,0,2.3,0.0,62,0.00,CLR,SKC,0.00,WeatherDisplay:10.37,2013-03-03 22:58:00,